createdAt,value
2022-09-23T00:00:26.833Z,101340.47
2022-09-23T00:02:57.142Z,101350.42
2022-09-23T00:05:27.601Z,101349.46
2022-09-23T00:07:58.493Z,101344.35
2022-09-23T00:10:31.428Z,101342.93
2022-09-23T00:13:02.603Z,101341.58
2022-09-23T00:15:34.172Z,101336.58
2022-09-23T00:18:04.911Z,101330.33
2022-09-23T00:20:37.199Z,101325.90
2022-09-23T00:23:07.414Z,101326.84
2022-09-23T00:25:37.869Z,101324.67
2022-09-23T00:28:08.105Z,101325.43
2022-09-23T00:30:41.333Z,101324.98
2022-09-23T00:33:11.562Z,101322.95
2022-09-23T00:35:41.785Z,101323.95
2022-09-23T00:38:14.307Z,101320.67
2022-09-23T00:40:47.026Z,101322.01
2022-09-23T00:43:17.848Z,101318.05
2022-09-23T00:45:52.397Z,101317.46
2022-09-23T00:48:23.294Z,101312.31
2022-09-23T00:50:56.394Z,101310.08
2022-09-23T00:53:28.557Z,101304.64
2022-09-23T00:56:03.249Z,101302.88
2022-09-23T00:58:37.121Z,101302.95
2022-09-23T01:01:07.757Z,101300.69
2022-09-23T01:03:38.297Z,101298.84
2022-09-23T01:06:09.548Z,101294.48
2022-09-23T01:08:40.448Z,101294.79
2022-09-23T01:11:20.244Z,101294.26
2022-09-23T01:13:56.990Z,101286.34
2022-09-23T01:16:34.560Z,101282.35
2022-09-23T01:19:23.969Z,101277.64
2022-09-23T01:22:01.249Z,101275.19
2022-09-23T01:24:49.061Z,101274.77
2022-09-23T01:27:27.697Z,101270.23
2022-09-23T01:30:09.889Z,101265.00
2022-09-23T01:32:50.241Z,101263.20
2022-09-23T01:35:30.482Z,101262.92
2022-09-23T01:38:12.491Z,101257.86
2022-09-23T01:41:09.959Z,101256.67
2022-09-23T01:43:48.814Z,101250.90
2022-09-23T01:46:23.997Z,101248.66
2022-09-23T01:48:59.453Z,101250.28
2022-09-23T01:51:36.063Z,101248.94
2022-09-23T01:54:12.501Z,101248.89
2022-09-23T01:56:48.473Z,101246.90
2022-09-23T01:59:26.424Z,101244.67
2022-09-23T02:01:58.636Z,101245.63
2022-09-23T02:04:34.927Z,101246.11
2022-09-23T02:07:11.788Z,101244.39
2022-09-23T02:09:45.117Z,101243.02
2022-09-23T02:12:21.353Z,101240.86
2022-09-23T02:14:54.958Z,101243.54
2022-09-23T02:17:31.384Z,101241.18
2022-09-23T02:20:06.226Z,101236.35
2022-09-23T02:22:41.349Z,101235.06
2022-09-23T02:25:13.469Z,101232.08
2022-09-23T02:27:57.194Z,101233.37
2022-09-23T02:30:33.193Z,101226.77
2022-09-23T02:33:07.889Z,101226.27
2022-09-23T02:35:49.346Z,101222.93
2022-09-23T02:38:29.304Z,101223.52
2022-09-23T02:41:05.648Z,101222.34
2022-09-23T02:43:43.903Z,101222.33
2022-09-23T02:46:14.656Z,101217.52
2022-09-23T02:48:51.486Z,101219.83
2022-09-23T02:51:25.435Z,101219.46
2022-09-23T02:53:56.930Z,101216.77
2022-09-23T02:56:28.167Z,101214.12
2022-09-23T02:58:58.777Z,101210.45
2022-09-23T03:01:50.074Z,101212.53
2022-09-23T03:04:31.622Z,101213.63
2022-09-23T03:07:07.189Z,101206.17
2022-09-23T03:09:42.262Z,101205.61
2022-09-23T03:12:18.475Z,101201.21
2022-09-23T03:14:54.828Z,101199.70
2022-09-23T03:17:33.754Z,101196.27
2022-09-23T03:20:09.317Z,101199.14
2022-09-23T03:22:44.096Z,101197.50
2022-09-23T03:25:20.486Z,101200.23
2022-09-23T03:27:51.204Z,101200.65
2022-09-23T03:30:21.828Z,101196.09
2022-09-23T03:32:53.095Z,101189.80
2022-09-23T03:35:24.323Z,101186.33
2022-09-23T03:37:57.981Z,101183.25
2022-09-23T03:40:33.778Z,101179.39
2022-09-23T03:43:05.098Z,101179.30
2022-09-23T03:45:36.651Z,101176.55
2022-09-23T03:48:07.878Z,101179.81
2022-09-23T03:50:39.251Z,101175.03
2022-09-23T03:53:09.828Z,101177.20
2022-09-23T03:55:40.404Z,101172.01
2022-09-23T03:58:11.328Z,101168.06
2022-09-23T04:00:42.592Z,101164.80
2022-09-23T04:03:12.925Z,101166.45
2022-09-23T04:05:43.603Z,101163.11
2022-09-23T04:08:13.809Z,101163.30
2022-09-23T04:10:46.395Z,101156.44
2022-09-23T04:13:17.549Z,101156.02
2022-09-23T04:15:51.812Z,101150.95
2022-09-23T04:18:22.223Z,101147.63
2022-09-23T04:20:52.806Z,101144.94
2022-09-23T04:23:22.999Z,101141.52
2022-09-23T04:25:53.504Z,101140.95
2022-09-23T04:28:24.600Z,101144.23
2022-09-23T04:30:57.732Z,101145.32
2022-09-23T04:33:27.929Z,101141.69
2022-09-23T04:35:58.863Z,101145.61
2022-09-23T04:38:29.425Z,101143.48
2022-09-23T04:41:00.347Z,101143.67
2022-09-23T04:43:30.876Z,101139.02
2022-09-23T04:46:03.027Z,101140.98
2022-09-23T04:48:33.943Z,101143.41
2022-09-23T04:51:07.035Z,101146.45
2022-09-23T04:53:38.396Z,101143.80
2022-09-23T04:56:14.118Z,101144.76
2022-09-23T04:58:45.524Z,101141.97
2022-09-23T05:01:17.927Z,101137.54
2022-09-23T05:03:48.859Z,101138.48
2022-09-23T05:06:20.441Z,101141.30
2022-09-23T05:08:52.440Z,101142.38
2022-09-23T05:11:23.882Z,101139.27
2022-09-23T05:13:55.331Z,101135.08
2022-09-23T05:16:26.749Z,101136.45
2022-09-23T05:18:57.603Z,101133.60
2022-09-23T05:21:30.240Z,101130.62
2022-09-23T05:24:01.241Z,101135.95
2022-09-23T05:26:33.392Z,101133.41
2022-09-23T05:29:04.009Z,101135.21
2022-09-23T05:31:34.592Z,101134.20
2022-09-23T05:34:07.005Z,101132.66
2022-09-23T05:36:39.360Z,101134.13
2022-09-23T05:39:09.938Z,101133.98
2022-09-23T05:41:41.762Z,101130.86
2022-09-23T05:44:11.960Z,101124.61
2022-09-23T05:46:42.201Z,101125.91
2022-09-23T05:49:12.667Z,101126.20
2022-09-23T05:51:43.085Z,101122.21
2022-09-23T05:54:13.547Z,101120.93
2022-09-23T05:56:43.903Z,101123.61
2022-09-23T05:59:14.596Z,101122.34
2022-09-23T06:01:46.358Z,101126.14
2022-09-23T06:04:16.563Z,101128.13
2022-09-23T06:06:46.776Z,101128.75
2022-09-23T06:09:17.823Z,101130.80
2022-09-23T06:11:48.204Z,101130.90
2022-09-23T06:14:18.833Z,101131.16
2022-09-23T06:16:49.051Z,101135.70
2022-09-23T06:19:19.215Z,101131.46
2022-09-23T06:21:51.147Z,101133.87
2022-09-23T06:24:25.979Z,101133.28
2022-09-23T06:26:59.195Z,101137.13
2022-09-23T06:29:32.343Z,101136.86
2022-09-23T06:32:04.065Z,101133.77
2022-09-23T06:34:45.693Z,101133.11
2022-09-23T06:37:20.642Z,101131.80
2022-09-23T06:39:51.802Z,101125.13
2022-09-23T06:42:22.024Z,101129.08
2022-09-23T06:44:52.295Z,101125.39
2022-09-23T06:47:22.493Z,101126.66
2022-09-23T06:49:53.045Z,101125.86
2022-09-23T06:52:23.227Z,101129.10
2022-09-23T06:54:53.701Z,101126.39
2022-09-23T06:57:24.460Z,101129.36
2022-09-23T06:59:54.962Z,101130.00
2022-09-23T07:02:26.054Z,101125.52
2022-09-23T07:04:57.418Z,101126.71
2022-09-23T07:07:31.372Z,101125.21
2022-09-23T07:10:01.579Z,101120.64
2022-09-23T07:12:32.164Z,101117.77
2022-09-23T07:15:02.384Z,101119.92
2022-09-23T07:17:33.031Z,101119.42
2022-09-23T07:20:04.643Z,101121.75
2022-09-23T07:22:35.905Z,101119.80
2022-09-23T07:25:07.799Z,101113.10
2022-09-23T07:27:38.248Z,101113.55
2022-09-23T07:30:20.473Z,101115.91
2022-09-23T07:32:53.993Z,101113.09
2022-09-23T07:35:24.377Z,101120.48
2022-09-23T07:37:55.171Z,101118.50
2022-09-23T07:40:25.926Z,101117.43
2022-09-23T07:42:56.706Z,101115.31
2022-09-23T07:45:27.665Z,101117.45
2022-09-23T07:47:58.577Z,101115.77
2022-09-23T07:50:31.909Z,101111.61
2022-09-23T07:53:03.033Z,101107.91
2022-09-23T07:55:33.249Z,101109.58
2022-09-23T07:58:03.928Z,101110.70
2022-09-23T08:00:35.751Z,101106.93
2022-09-23T08:03:06.077Z,101104.98
2022-09-23T08:05:36.607Z,101103.04
2022-09-23T08:08:07.786Z,101104.83
2022-09-23T08:10:38.077Z,101108.06
2022-09-23T08:13:08.568Z,101108.98
2022-09-23T08:15:40.449Z,101110.13
2022-09-23T08:18:11.360Z,101109.07
2022-09-23T08:20:48.259Z,101114.02
2022-09-23T08:23:19.706Z,101117.50
2022-09-23T08:25:50.441Z,101114.42
2022-09-23T08:28:20.992Z,101114.65
2022-09-23T08:30:52.363Z,101109.91
2022-09-23T08:33:23.822Z,101105.83
2022-09-23T08:35:59.904Z,101099.73
2022-09-23T08:38:30.835Z,101100.16
2022-09-23T08:41:10.776Z,101099.33
2022-09-23T08:43:45.629Z,101098.46
2022-09-23T08:46:22.930Z,101100.09
2022-09-23T08:48:54.791Z,101102.30
2022-09-23T08:51:32.176Z,101096.38
2022-09-23T08:54:03.308Z,101096.97
2022-09-23T08:56:35.437Z,101091.53
2022-09-23T08:59:13.508Z,101087.06
2022-09-23T09:01:47.232Z,101083.10
2022-09-23T09:04:27.470Z,101082.93
2022-09-23T09:07:31.872Z,101085.66
2022-09-23T09:09:59.903Z,101088.18
2022-09-23T09:12:35.435Z,101089.56
2022-09-23T09:15:08.738Z,101087.83
2022-09-23T09:17:45.830Z,101090.44
2022-09-23T09:20:25.837Z,101090.43
2022-09-23T09:23:01.030Z,101086.27
2022-09-23T09:25:43.265Z,101085.80
2022-09-23T09:28:19.837Z,101084.68
2022-09-23T09:30:55.880Z,101081.13
2022-09-23T09:33:33.214Z,101076.08
2022-09-23T09:36:16.135Z,101077.23
2022-09-23T09:38:46.420Z,101074.67
2022-09-23T09:41:21.512Z,101067.25
2022-09-23T09:43:57.675Z,101068.55
2022-09-23T09:46:45.961Z,101064.44
2022-09-23T09:49:26.036Z,101061.79
2022-09-23T09:52:15.950Z,101057.27
2022-09-23T09:54:46.193Z,101051.73
2022-09-23T09:57:32.126Z,101049.92
2022-09-23T10:03:05.126Z,101046.02
2022-09-23T10:05:48.228Z,101043.48
2022-09-23T10:08:26.568Z,101045.17
2022-09-23T10:11:03.899Z,101042.91
2022-09-23T10:13:34.390Z,101039.45
2022-09-23T10:16:05.871Z,101037.73
2022-09-23T10:18:39.387Z,101035.36
2022-09-23T10:21:14.429Z,101038.15
2022-09-23T10:23:47.680Z,101034.04
2022-09-23T10:26:18.569Z,101035.16
2022-09-23T10:28:52.327Z,101035.71
2022-09-23T10:31:27.685Z,101033.58
2022-09-23T10:34:00.805Z,101032.83
2022-09-23T10:36:32.942Z,101032.67
2022-09-23T10:39:19.555Z,101025.80
2022-09-23T10:42:17.204Z,101025.70
2022-09-23T10:45:18.857Z,101026.78
2022-09-23T10:47:59.862Z,101026.52
2022-09-23T10:50:40.648Z,101020.73
2022-09-23T10:53:20.665Z,101018.87
2022-09-23T10:56:05.761Z,101015.13
2022-09-23T10:59:01.657Z,101011.63
2022-09-23T11:01:43.681Z,101006.94
2022-09-23T11:04:41.270Z,101001.66
2022-09-23T11:07:22.978Z,101001.41
2022-09-23T11:10:45.411Z,100994.81
2022-09-23T11:13:30.247Z,100993.52
2022-09-23T11:16:08.561Z,100984.89
2022-09-23T11:18:57.992Z,100984.03
2022-09-23T11:21:57.072Z,100981.44
2022-09-23T11:24:48.910Z,100972.54
2022-09-23T11:27:31.457Z,100974.31
2022-09-23T11:30:14.204Z,100967.52
2022-09-23T11:33:14.507Z,100967.05
2022-09-23T11:35:50.190Z,100962.80
2022-09-23T11:38:26.237Z,100958.42
2022-09-23T11:41:02.403Z,100951.50
2022-09-23T11:43:39.840Z,100955.98
2022-09-23T11:46:18.303Z,100950.90
2022-09-23T11:48:54.757Z,100946.67
2022-09-23T11:51:30.268Z,100945.89
2022-09-23T11:54:04.099Z,100942.68
2022-09-23T11:56:40.830Z,100942.59
2022-09-23T11:59:36.168Z,100940.50
2022-09-23T12:02:22.914Z,100933.30
2022-09-23T12:05:03.415Z,100934.16
2022-09-23T12:07:46.755Z,100930.58
2022-09-23T12:10:18.685Z,100934.43
2022-09-23T12:12:59.649Z,100929.40
2022-09-23T12:15:44.126Z,100925.35
2022-09-23T12:18:35.895Z,100923.06
2022-09-23T12:21:48.636Z,100922.04
2022-09-23T12:24:37.352Z,100921.95
2022-09-23T12:27:12.952Z,100916.96
2022-09-23T12:29:43.754Z,100920.80
2022-09-23T12:32:21.292Z,100918.08
2022-09-23T12:34:52.900Z,100911.71
2022-09-23T12:37:29.141Z,100917.52
2022-09-23T12:40:07.667Z,100915.19
2022-09-23T12:42:45.893Z,100915.48
2022-09-23T12:45:38.680Z,100913.23
2022-09-23T12:48:43.999Z,100914.96
2022-09-23T12:51:20.488Z,100913.69
2022-09-23T12:54:15.595Z,100908.46
2022-09-23T12:57:05.358Z,100906.02
2022-09-23T13:00:00.685Z,100899.71
2022-09-23T13:02:35.461Z,100895.44
2022-09-23T13:05:37.812Z,100894.31
2022-09-23T13:08:13.490Z,100894.23
2022-09-23T13:10:48.277Z,100893.92
2022-09-23T13:13:24.992Z,100886.70
2022-09-23T13:15:56.237Z,100889.55
2022-09-23T13:18:41.360Z,100887.90
2022-09-23T13:21:40.356Z,100887.18
2022-09-23T13:24:36.341Z,100883.86
2022-09-23T13:27:15.615Z,100881.67
2022-09-23T13:29:51.843Z,100874.14
2022-09-23T13:32:26.316Z,100871.73
2022-09-23T13:35:01.470Z,100867.68
2022-09-23T13:37:43.551Z,100864.27
2022-09-23T13:40:21.640Z,100860.50
2022-09-23T13:42:58.557Z,100854.21
2022-09-23T13:45:32.184Z,100855.19
2022-09-23T13:48:07.280Z,100854.12
2022-09-23T13:50:40.869Z,100851.85
2022-09-23T13:53:14.318Z,100843.65
2022-09-23T13:55:47.919Z,100845.13
2022-09-23T13:58:23.799Z,100844.19
2022-09-23T14:00:54.331Z,100845.59
2022-09-23T14:03:36.224Z,100841.55
2022-09-23T14:06:12.219Z,100840.34
2022-09-23T14:08:45.521Z,100840.29
2022-09-23T14:11:19.272Z,100835.09
2022-09-23T14:13:54.910Z,100830.77
2022-09-23T14:16:28.262Z,100827.31
2022-09-23T14:19:01.703Z,100823.41
2022-09-23T14:21:37.310Z,100824.56
2022-09-23T14:24:19.426Z,100821.16
2022-09-23T14:26:53.522Z,100825.67
2022-09-23T14:29:28.157Z,100821.02
2022-09-23T14:32:02.650Z,100819.16
2022-09-23T14:34:48.828Z,100817.60
2022-09-23T14:37:51.298Z,100820.36
2022-09-23T14:40:24.864Z,100820.89
2022-09-23T14:43:03.497Z,100819.23
2022-09-23T14:45:36.472Z,100814.95
2022-09-23T14:48:11.477Z,100810.31
2022-09-23T14:50:50.499Z,100808.81
2022-09-23T14:53:40.243Z,100811.50
2022-09-23T14:56:19.362Z,100809.44
2022-09-23T14:58:53.685Z,100812.13
2022-09-23T15:01:37.985Z,100809.86
2022-09-23T15:04:29.622Z,100815.67
2022-09-23T15:07:03.550Z,100810.75
2022-09-23T15:09:37.185Z,100805.85
2022-09-23T15:12:13.237Z,100802.68
2022-09-23T15:14:47.189Z,100798.10
2022-09-23T15:17:26.980Z,100791.70
2022-09-23T15:20:00.538Z,100797.30
2022-09-23T15:22:30.786Z,100794.05
2022-09-23T15:25:18.628Z,100790.98
2022-09-23T15:28:00.812Z,100790.05
2022-09-23T15:30:31.847Z,100789.89
2022-09-23T15:33:02.821Z,100788.23
2022-09-23T15:35:33.674Z,100788.52
2022-09-23T15:38:04.353Z,100791.16
2022-09-23T15:40:36.412Z,100783.52
2022-09-23T15:43:20.148Z,100785.19
2022-09-23T15:45:53.512Z,100779.69
2022-09-23T15:48:26.900Z,100773.87
2022-09-23T15:50:59.126Z,100774.49
2022-09-23T15:53:31.446Z,100773.34
2022-09-23T15:56:01.996Z,100776.00
2022-09-23T15:58:32.649Z,100774.16
2022-09-23T16:01:03.350Z,100770.16
2022-09-23T16:03:34.075Z,100768.99
2022-09-23T16:06:06.288Z,100768.02
2022-09-23T16:08:37.612Z,100766.11
2022-09-23T16:11:11.397Z,100768.85
2022-09-23T16:13:42.620Z,100764.95
2022-09-23T16:16:13.415Z,100765.66
2022-09-23T16:18:43.917Z,100764.69
2022-09-23T16:21:16.198Z,100768.61
2022-09-23T16:23:49.277Z,100770.96
2022-09-23T16:26:21.748Z,100769.15
2022-09-23T16:28:53.740Z,100766.23
2022-09-23T16:31:25.658Z,100763.56
2022-09-23T16:33:56.602Z,100760.51
2022-09-23T16:36:28.989Z,100760.41
2022-09-23T16:38:59.560Z,100759.72
2022-09-23T16:41:31.491Z,100757.15
2022-09-23T16:44:04.637Z,100757.00
2022-09-23T16:46:35.504Z,100755.42
2022-09-23T16:49:05.876Z,100755.55
2022-09-23T16:51:38.388Z,100753.46
2022-09-23T16:54:11.767Z,100753.02
2022-09-23T16:56:44.181Z,100749.05
2022-09-23T16:59:15.567Z,100752.37
2022-09-23T17:02:03.687Z,100748.95
2022-09-23T17:04:34.801Z,100748.05
2022-09-23T17:07:05.078Z,100747.88
2022-09-23T17:09:35.671Z,100750.33
2022-09-23T17:12:15.739Z,100750.88
2022-09-23T17:14:45.927Z,100750.66
2022-09-23T17:17:16.132Z,100749.30
2022-09-23T17:19:46.644Z,100751.42
2022-09-23T17:22:17.201Z,100748.08
2022-09-23T17:24:47.427Z,100746.14
2022-09-23T17:27:18.777Z,100751.60
2022-09-23T17:29:49.337Z,100748.91
2022-09-23T17:32:21.034Z,100745.70
2022-09-23T17:34:51.807Z,100744.69
2022-09-23T17:37:22.573Z,100746.93
2022-09-23T17:39:52.740Z,100750.00
2022-09-23T17:42:23.389Z,100748.23
2022-09-23T17:44:56.150Z,100745.94
2022-09-23T17:47:26.926Z,100746.16
2022-09-23T17:49:58.771Z,100746.36
2022-09-23T17:52:28.969Z,100747.60
2022-09-23T17:54:59.167Z,100750.49
2022-09-23T17:57:29.331Z,100750.94
2022-09-23T18:00:05.585Z,100748.88
2022-09-23T18:02:36.163Z,100750.23
2022-09-23T18:05:07.760Z,100752.33
2022-09-23T18:07:40.513Z,100747.73
2022-09-23T18:10:14.540Z,100749.43
2022-09-23T18:12:45.446Z,100745.81
2022-09-23T18:15:19.971Z,100747.86
2022-09-23T18:17:51.026Z,100748.29
2022-09-23T18:20:21.373Z,100749.39
2022-09-23T18:22:52.318Z,100747.20
2022-09-23T18:25:38.579Z,100750.95
2022-09-23T18:28:09.667Z,100753.26
2022-09-23T18:30:40.104Z,100753.41
2022-09-23T18:33:10.261Z,100749.33
2022-09-23T18:35:40.416Z,100751.17
2022-09-23T18:38:10.629Z,100747.51
2022-09-23T18:40:49.920Z,100753.02
2022-09-23T18:43:24.539Z,100749.44
2022-09-23T18:46:01.196Z,100753.96
2022-09-23T18:48:50.927Z,100752.20
2022-09-23T18:51:24.066Z,100753.02
2022-09-23T18:53:57.601Z,100751.77
2022-09-23T18:56:33.542Z,100753.29
2022-09-23T18:59:05.721Z,100753.66
2022-09-23T19:01:36.981Z,100753.02
2022-09-23T19:04:07.717Z,100755.92
2022-09-23T19:06:38.360Z,100756.42
2022-09-23T19:09:09.430Z,100756.61
2022-09-23T19:11:39.986Z,100758.10
2022-09-23T19:14:12.029Z,100760.54
2022-09-23T19:16:43.072Z,100762.87
2022-09-23T19:19:13.602Z,100758.83
2022-09-23T19:21:44.074Z,100758.59
2022-09-23T19:24:16.112Z,100755.83
2022-09-23T19:26:46.833Z,100756.29
2022-09-23T19:29:21.901Z,100753.73
2022-09-23T19:31:53.091Z,100752.15
2022-09-23T19:34:25.981Z,100752.27
2022-09-23T19:36:58.269Z,100752.38
2022-09-23T19:39:31.758Z,100750.23
2022-09-23T19:42:02.379Z,100746.27
2022-09-23T19:44:33.148Z,100746.00
2022-09-23T19:47:03.351Z,100747.84
2022-09-23T19:49:33.599Z,100743.92
2022-09-23T19:52:04.237Z,100742.51
2022-09-23T19:54:34.502Z,100739.60
2022-09-23T20:04:40.492Z,100732.40
2022-09-23T20:07:11.402Z,100730.85
2022-09-23T20:09:42.123Z,100728.70
2022-09-23T20:12:13.004Z,100730.36
2022-09-23T20:14:43.650Z,100728.64
2022-09-23T20:17:14.364Z,100728.86
2022-09-23T20:19:45.572Z,100724.88
2022-09-23T20:22:32.997Z,100721.91
2022-09-23T20:25:04.646Z,100717.64
2022-09-23T20:27:35.238Z,100710.85
2022-09-23T20:30:06.394Z,100712.86
2022-09-23T20:32:40.701Z,100708.71
2022-09-23T20:35:13.654Z,100708.81
2022-09-23T20:37:44.620Z,100703.73
2022-09-23T20:40:15.237Z,100700.55
2022-09-23T20:42:48.981Z,100700.31
2022-09-23T20:45:19.291Z,100696.48
2022-09-23T20:47:49.842Z,100694.89
2022-09-23T20:50:20.545Z,100691.67
2022-09-23T20:52:50.882Z,100693.71
2022-09-23T20:55:21.528Z,100697.28
2022-09-23T20:57:51.864Z,100695.06
2022-09-23T21:00:22.251Z,100695.36
2022-09-23T21:02:52.664Z,100695.20
2022-09-23T21:05:23.345Z,100690.79
2022-09-23T21:07:53.750Z,100690.49
2022-09-23T21:10:24.921Z,100692.06
2022-09-23T21:12:55.553Z,100690.17
2022-09-23T21:15:26.013Z,100687.42
2022-09-23T21:17:56.320Z,100687.34
2022-09-23T21:20:26.775Z,100686.42
2022-09-23T21:22:57.338Z,100686.90
2022-09-23T21:25:29.040Z,100686.23
2022-09-23T21:28:01.984Z,100685.06
2022-09-23T21:30:32.305Z,100681.30
2022-09-23T21:33:06.119Z,100682.75
2022-09-23T21:35:36.567Z,100678.13
2022-09-23T21:38:06.817Z,100675.34
2022-09-23T21:40:54.962Z,100674.08
2022-09-23T21:43:26.203Z,100673.85
2022-09-23T21:46:02.178Z,100670.17
2022-09-23T21:48:33.935Z,100669.34
2022-09-23T21:51:06.535Z,100671.27
2022-09-23T21:53:37.528Z,100668.64
2022-09-23T21:56:09.947Z,100667.66
2022-09-23T21:58:41.778Z,100672.99
2022-09-23T22:01:13.629Z,100677.30
2022-09-23T22:03:44.498Z,100672.77
2022-09-23T22:06:21.520Z,100672.98
2022-09-23T22:08:54.507Z,100668.11
2022-09-23T22:11:43.841Z,100672.33
2022-09-23T22:14:15.778Z,100675.79
2022-09-23T22:16:46.733Z,100677.95
2022-09-23T22:19:17.276Z,100676.26
2022-09-23T22:21:49.457Z,100676.71
2022-09-23T22:24:20.040Z,100669.46
2022-09-23T22:26:50.625Z,100674.47
2022-09-23T22:29:39.036Z,100668.52
2022-09-23T22:32:30.307Z,100672.45
2022-09-23T22:35:00.653Z,100670.30
2022-09-23T22:37:34.785Z,100667.77
2022-09-23T22:40:06.938Z,100668.01
2022-09-23T22:42:38.964Z,100664.23
2022-09-23T22:45:11.754Z,100664.36
2022-09-23T22:47:44.135Z,100662.41
2022-09-23T22:50:15.121Z,100657.44
2022-09-23T22:52:45.621Z,100655.25
2022-09-23T22:55:16.084Z,100654.63
2022-09-23T22:57:46.342Z,100652.77
2022-09-23T23:00:17.078Z,100649.80
2022-09-23T23:02:47.111Z,100651.41
2022-09-23T23:05:18.134Z,100654.24
2022-09-23T23:07:48.410Z,100654.16
2022-09-23T23:10:19.465Z,100650.39
2022-09-23T23:12:52.162Z,100650.02
2022-09-23T23:15:22.369Z,100646.03
2022-09-23T23:17:58.229Z,100648.96
2022-09-23T23:20:28.456Z,100646.44
2022-09-23T23:23:01.282Z,100646.25
2022-09-23T23:25:31.393Z,100647.65
2022-09-23T23:28:01.572Z,100648.42
2022-09-23T23:30:31.663Z,100647.66
2022-09-23T23:33:02.163Z,100647.59
2022-09-23T23:35:32.903Z,100644.35
2022-09-23T23:38:05.922Z,100644.55
2022-09-23T23:40:38.596Z,100643.12
2022-09-23T23:43:09.215Z,100639.40
2022-09-23T23:45:39.699Z,100641.95
2022-09-23T23:48:09.900Z,100642.39
2022-09-23T23:50:40.178Z,100641.27
2022-09-23T23:53:11.879Z,100639.41
2022-09-23T23:55:42.004Z,100635.62
2022-09-23T23:58:12.127Z,100636.34
